CST,Max TemperatureF,Mean TemperatureF,Min TemperatureF,Max Dew PointF,MeanDew PointF,Min DewpointF,Max Humidity, Mean Humidity, Min Humidity, Max Sea Level PressureIn, Mean Sea Level PressureIn, Min Sea Level PressureIn, Max VisibilityMiles, Mean VisibilityMiles, Min VisibilityMiles, Max Wind SpeedMPH, Mean Wind SpeedMPH, Max Gust SpeedMPH,PrecipitationIn, CloudCover, Events, WindDirDegrees
2012-11-1,63,48,32,39,32,21,73,58,42,30.00,29.94,29.87,10,10,10,14,6,17,0.00,3,,270
2012-11-2,53,42,31,32,30,27,82,62,41,30.11,30.05,29.97,10,10,10,14,7,16,0.00,0,,69
2012-11-3,51,43,34,37,34,29,82,67,52,30.22,30.12,30.03,10,10,5,17,9,21,0.07,4,Rain-Thunderstorm,75
2012-11-4,46,38,30,36,33,28,92,76,60,30.28,30.22,30.17,10,9,7,10,4,13,T,4,Rain,146
2012-11-5,41,40,39,38,36,35,92,86,79,30.14,30.11,30.08,8,5,2,16,9,22,0.23,8,Rain,97
2012-11-6,46,43,40,43,39,37,96,86,76,30.10,29.97,29.89,10,5,2,18,7,26,0.07,8,Rain,234
2012-11-7,48,42,36,38,35,31,89,74,58,30.19,30.09,29.94,10,10,9,18,8,23,0.00,7,,360
2012-11-8,55,44,32,39,35,30,92,72,51,30.20,30.12,30.02,10,9,4,15,9,20,0.00,0,,160
2012-11-9,68,56,43,53,45,37,82,69,55,30.01,29.94,29.86,10,10,10,18,9,25,0.00,1,,172
2012-11-10,75,67,59,54,49,42,72,54,35,29.90,29.85,29.79,10,10,10,26,15,35,0.01,1,Rain-Thunderstorm,182
2012-11-11,68,50,32,55,45,25,96,78,60,30.13,29.88,29.70,10,7,2,35,16,44,0.62,6,Rain-Snow,272
2012-11-12,41,33,25,22,20,17,75,60,44,30.43,30.30,30.13,10,10,10,24,12,33,0.00,0,,269
2012-11-13,47,36,24,26,23,20,81,59,37,30.53,30.47,30.43,10,10,10,9,5,12,0.00,0,,179
2012-11-14,52,43,33,30,27,25,75,58,41,30.48,30.41,30.35,10,10,10,14,7,18,0.00,0,,162
2012-11-15,55,44,32,33,28,25,75,57,38,30.38,30.35,30.32,10,10,10,8,5,12,0.00,1,,176
2012-11-16,57,44,31,40,33,27,92,70,47,30.46,30.42,30.38,10,8,2,8,3,9,0.00,0,,304
2012-11-17,57,45,33,32,30,28,82,58,33,30.50,30.43,30.38,10,9,7,15,8,20,0.00,0,,149
2012-11-18,60,48,35,34,32,27,76,53,29,30.38,30.32,30.26,10,10,7,13,8,16,0.00,0,,160
2012-11-19,53,48,43,45,39,32,89,72,54,30.25,30.18,30.09,10,10,7,14,7,17,0.03,4,Rain,176
2012-11-20,49,43,37,47,43,37,100,96,92,30.22,30.12,30.06,9,1,0,10,5,12,0.00,4,Fog,317
2012-11-21,62,47,32,48,41,32,100,80,60,30.27,30.20,30.08,10,4,0,14,6,16,0.00,1,Fog,190
2012-11-22,68,56,43,52,43,33,80,64,48,30.12,29.96,29.82,10,10,8,26,15,33,0.01,3,Rain,211
2012-11-23,43,34,24,33,21,16,76,60,44,30.37,30.28,30.14,10,10,2,29,15,36,0.00,1,,300
2012-11-24,34,26,18,20,17,14,77,66,54,30.36,30.22,29.97,10,10,10,12,7,14,0.00,0,,231
2012-11-25,47,38,28,29,26,20,78,64,49,30.10,29.97,29.90,10,10,10,15,8,20,0.00,0,,303
2012-11-26,42,31,20,27,22,12,85,70,54,30.44,30.29,30.10,10,8,2,20,11,24,T,4,Snow,1
2012-11-27,35,25,15,17,14,10,80,62,44,30.48,30.39,30.31,10,10,10,12,5,14,0.00,0,,257
2012-11-28,45,34,23,27,23,17,75,62,49,30.45,30.36,30.27,10,10,10,9,6,13,0.00,0,,201
2012-11-29,57,45,32,36,31,25,70,55,40,30.26,30.13,30.03,10,10,10,18,9,23,0.00,0,,177
2012-11-30,60,50,40,39,35,31,70,57,44,30.08,30.06,30.03,10,10,10,14,9,18,0.00,0,,190